Robert Franco — WDG7687 — position and weather

sailwx.info

Track history (hours):
 
Tides and Currents Weather Stations Pressure Air Temp Water Temp Dewpoint Dewpoint Depression Visibility Wind Speed Wind Dir Waves Ship Positions

Robert Franco

Owner: Harley Marine Services, Inc, Seattle, WA. More information available from US FCC via Universal Licensing System and Coast Guard Vessel Documentation Center.

Last reported at 2017-Sep-24 14:00 UTC. Time now 2017-Sep-24 14:12 UTC.
Position N 33°45' W 118°11'.

Length 30 m; draft 5.7 m.

Type: Towing. MMSI: 367569830.

Date/timePositionNaut miles runAvg speedWind from/ knotsBaromVisibWave heightAir tempDewpointWater temp
2017-Sep-24 14:00N 33°45' W 118°11'1 2.1
2017-Sep-24 13:30N 33°45' W 118°12'3 5.9
2017-Sep-24 13:00N 33°43' W 118°15'1 2.1
2017-Sep-24 12:30N 33°44' W 118°16'0 0.2
2017-Sep-24 12:00N 33°44' W 118°16'0 0.0
2017-Sep-24 11:31N 33°44' W 118°16'0 0.1
2017-Sep-24 11:00N 33°44' W 118°16'0 0.0
2017-Sep-24 10:30N 33°44' W 118°16'0 0.0
2017-Sep-24 10:00N 33°44' W 118°16'0 0.0
2017-Sep-24 09:30N 33°44' W 118°16'0 0.0
2017-Sep-24 09:00N 33°44' W 118°16'0 0.0
2017-Sep-24 08:30N 33°44' W 118°16'0 0.0
2017-Sep-24 08:00N 33°44' W 118°16'0 0.0
2017-Sep-24 07:30N 33°44' W 118°16'0 0.0
2017-Sep-24 06:49N 33°44' W 118°16'0 0.0
2017-Sep-24 06:30N 33°44' W 118°16'0 0.0
2017-Sep-24 06:00N 33°44' W 118°16'0 0.0
2017-Sep-24 05:17N 33°44' W 118°16'0 0.0
2017-Sep-24 05:00N 33°44' W 118°16'0 0.0
2017-Sep-24 04:30N 33°44' W 118°16'0 0.0
2017-Sep-24 04:00N 33°44' W 118°16'0 0.0
2017-Sep-24 03:30N 33°44' W 118°16'0 0.0
2017-Sep-24 03:00N 33°44' W 118°16'0 0.0
2017-Sep-24 02:30N 33°44' W 118°16'0 0.0
2017-Sep-24 02:00N 33°44' W 118°16'1 1.8
2017-Sep-24 01:30N 33°43' W 118°16'2 4.5
2017-Sep-24 01:00N 33°45' W 118°16'1 1.6
2017-Sep-24 00:30N 33°46' W 118°15'0 0.2
2017-Sep-24 00:00N 33°46' W 118°16'0 0.0
2017-Sep-23 23:30N 33°46' W 118°16'0 0.0
2017-Sep-23 23:00N 33°46' W 118°16'1 1.9
2017-Sep-23 22:28N 33°46' W 118°14'1 2.3
2017-Sep-23 21:59N 33°46' W 118°13'2 4.6
2017-Sep-23 21:29N 33°44' W 118°13'2 3.6
2017-Sep-23 21:00N 33°43' W 118°14'2 1.0
2017-Sep-23 19:31N 33°44' W 118°16'3 0.1
2017-Sep-22 01:59N 33°44' W 118°12'3 5.0
2017-Sep-22 01:27N 33°44' W 118°16'0 0.6
2017-Sep-22 01:00N 33°44' W 118°16'0 0.0
2017-Sep-22 00:28N 33°44' W 118°16'0 0.0
2017-Sep-22 00:00N 33°44' W 118°16'0 0.0
2017-Sep-21 23:30N 33°44' W 118°16'1 2.5
2017-Sep-21 22:58N 33°45' W 118°16'1 1.1
2017-Sep-21 22:27N 33°45' W 118°17'2 5.2
2017-Sep-21 21:59N 33°43' W 118°15'0 0.4
2017-Sep-21 21:28N 33°43' W 118°15'1 3.1
2017-Sep-21 21:00N 33°44' W 118°16'0 0.0
2017-Sep-21 20:28N 33°44' W 118°16'0 0.0
2017-Sep-21 19:59N 33°44' W 118°16'0 0.0
2017-Sep-21 19:30N 33°44' W 118°16'0 0.0
2017-Sep-21 18:59N 33°44' W 118°16'0 0.7
2017-Sep-21 18:30N 33°44' W 118°16'3 5.8
2017-Sep-21 18:00N 33°45' W 118°13'0 0.0
2017-Sep-21 17:30N 33°45' W 118°13'0 0.0
2017-Sep-21 17:00N 33°45' W 118°13'1 1.2
2017-Sep-21 16:31N 33°45' W 118°13'0 0.8
2017-Sep-21 16:00N 33°45' W 118°13'6 4.4
2017-Sep-21 14:42N 33°40' W 118°10'1 5.0
2017-Sep-21 14:25N 33°40' W 118°09'4 6.3
2017-Sep-21 13:47N 33°43' W 118°11'3 8.8
2017-Sep-21 13:30N 33°45' W 118°13'0 0.3
2017-Sep-21 12:52N 33°45' W 118°13'2 5.6
2017-Sep-21 12:29N 33°44' W 118°11'1 1.1
2017-Sep-21 11:58N 33°44' W 118°12'3 5.3
2017-Sep-21 11:27N 33°44' W 118°15'0 0.5
2017-Sep-21 10:48N 33°44' W 118°15'2 5.3
2017-Sep-21 10:27N 33°44' W 118°13'2 4.5
2017-Sep-21 09:57N 33°46' W 118°13'1 1.2
2017-Sep-21 09:27N 33°46' W 118°14'4 4.5
2017-Sep-21 08:39N 33°43' W 118°15'1 5.4
2017-Sep-21 08:27N 33°44' W 118°16'0 0.1
2017-Sep-21 07:56N 33°44' W 118°16'0 0.0
2017-Sep-21 07:14N 33°44' W 118°16'0 0.0
2017-Sep-21 06:58N 33°44' W 118°16'0 0.0
2017-Sep-21 06:29N 33°44' W 118°16'0 0.0
2017-Sep-21 06:00N 33°44' W 118°16'0 0.0
2017-Sep-21 05:21N 33°44' W 118°16'0 0.5
2017-Sep-21 05:00N 33°44' W 118°15'0 0.3
2017-Sep-21 04:29N 33°44' W 118°16'0 0.0
2017-Sep-21 03:59N 33°44' W 118°16'0 0.0
2017-Sep-21 03:29N 33°44' W 118°16'0 0.0
2017-Sep-21 02:58N 33°44' W 118°16'0 0.0
2017-Sep-21 02:29N 33°44' W 118°16'0 0.0
2017-Sep-21 01:58N 33°44' W 118°16'0 0.0
2017-Sep-21 01:30N 33°44' W 118°16'0 0.0
2017-Sep-21 00:58N 33°44' W 118°16'0 0.0
2017-Sep-21 00:29N 33°44' W 118°16'0 0.0
2017-Sep-20 23:59N 33°44' W 118°16'0 0.0
2017-Sep-20 23:30N 33°44' W 118°16'0 0.0
2017-Sep-20 22:56N 33°44' W 118°16'0 0.0
2017-Sep-20 22:26N 33°44' W 118°16'0 0.0
2017-Sep-20 22:00N 33°44' W 118°16'0 0.0
2017-Sep-20 21:30N 33°44' W 118°16'0 0.0
2017-Sep-20 21:00N 33°44' W 118°16'0 0.0
2017-Sep-20 20:29N 33°44' W 118°16'0 0.0
2017-Sep-20 20:00N 33°44' W 118°16'0 0.0
2017-Sep-20 19:29N 33°44' W 118°16'0 0.0
2017-Sep-20 19:00N 33°44' W 118°16'0 0.0
2017-Sep-20 18:30N 33°44' W 118°16'0 0.0
2017-Sep-20 18:00N 33°44' W 118°16'0 0.0
2017-Sep-20 17:30N 33°44' W 118°16'0 0.0
2017-Sep-20 17:00N 33°44' W 118°16'0 0.0
2017-Sep-20 16:30N 33°44' W 118°16'0 0.0
2017-Sep-20 15:56N 33°44' W 118°16'0 0.0
2017-Sep-20 15:30N 33°44' W 118°16'0 0.2
2017-Sep-20 13:40N 33°43' W 118°16'1 8.4
2017-Sep-20 13:30N 33°43' W 118°14'2 4.0
2017-Sep-20 12:54N 33°45' W 118°13'0 0.7
2017-Sep-20 12:19N 33°46' W 118°13'0 0.0
2017-Sep-20 12:00N 33°46' W 118°13'1 2.3
2017-Sep-20 11:29N 33°44' W 118°13'1 1.2
2017-Sep-20 10:49N 33°45' W 118°13'0 1.0
2017-Sep-20 10:29N 33°45' W 118°13'0 0.1
2017-Sep-20 10:00N 33°45' W 118°13'0 0.3
2017-Sep-20 09:29N 33°45' W 118°13'0 0.4
2017-Sep-20 08:51N 33°45' W 118°13'2 6.1
2017-Sep-20 08:27N 33°43' W 118°14'1 3.1
2017-Sep-20 07:59N 33°44' W 118°16'0 0.0
2017-Sep-20 07:25N 33°44' W 118°16'0 0.0
2017-Sep-20 06:59N 33°44' W 118°16'0 0.0
2017-Sep-20 06:20N 33°44' W 118°16'0 0.0
2017-Sep-20 05:58N 33°44' W 118°16'0 0.0
2017-Sep-20 05:24N 33°44' W 118°16'0 0.0
2017-Sep-20 04:59N 33°44' W 118°16'0 0.0
2017-Sep-20 04:28N 33°44' W 118°16'0 0.0
2017-Sep-20 03:59N 33°44' W 118°16'0 0.0
2017-Sep-20 02:58N 33°44' W 118°16'0 0.0
2017-Sep-20 02:28N 33°44' W 118°16'0 0.0
2017-Sep-20 02:00N 33°44' W 118°16'0 0.0
2017-Sep-20 01:20N 33°44' W 118°16'0 0.0
2017-Sep-20 00:58N 33°44' W 118°16'0 0.0
2017-Sep-20 00:26N 33°44' W 118°16'0 0.0
2017-Sep-19 23:57N 33°44' W 118°16'1 1.4
2017-Sep-19 23:29N 33°44' W 118°16'2 3.5
2017-Sep-19 22:58N 33°46' W 118°16'3 5.9
2017-Sep-19 22:29N 33°43' W 118°16'3 7.0
2017-Sep-19 22:00N 33°45' W 118°12'1 2.2
2017-Sep-19 21:31N 33°45' W 118°13'0 0.8
2017-Sep-19 20:56N 33°45' W 118°13'1 2.2
2017-Sep-19 20:29N 33°44' W 118°13'2 2.1
2017-Sep-19 19:30N 33°44' W 118°16'0 0.0
2017-Sep-19 18:42N 33°44' W 118°16'0 0.0
2017-Sep-19 18:25N 33°44' W 118°16'0 0.0
2017-Sep-19 17:48N 33°44' W 118°16'0 0.0
2017-Sep-19 17:30N 33°44' W 118°16'0 0.3
2017-Sep-19 15:49N 33°43' W 118°16'3 6.1
2017-Sep-19 15:20N 33°44' W 118°12'0 0.6
2017-Sep-19 14:59N 33°45' W 118°12'3 0.7
2017-Sep-19 10:18N 33°45' W 118°16'0 1.3
2017-Sep-19 09:58N 33°45' W 118°16'0 0.1
2017-Sep-19 09:26N 33°45' W 118°16'2 2.2
2017-Sep-19 08:43N 33°44' W 118°16'0 0.0
2017-Sep-19 08:30N 33°44' W 118°16'0 0.0
2017-Sep-19 07:55N 33°44' W 118°16'0 0.0
2017-Sep-19 07:30N 33°44' W 118°16'0 0.0
2017-Sep-19 06:53N 33°44' W 118°16'0 0.0
2017-Sep-19 06:26N 33°44' W 118°16'0 0.0
2017-Sep-19 04:26N 33°44' W 118°16'0 0.0
2017-Sep-19 03:59N 33°44' W 118°16'0 0.0
2017-Sep-19 03:30N 33°44' W 118°16'0 0.0
2017-Sep-19 02:40N 33°44' W 118°16'0 0.0
2017-Sep-19 02:27N 33°44' W 118°16'0 0.0
2017-Sep-19 01:47N 33°44' W 118°16'0 0.0
2017-Sep-19 01:19N 33°44' W 118°16'0 0.0
2017-Sep-19 00:53N 33°44' W 118°16'2 3.6
2017-Sep-19 00:27N 33°43' W 118°14'1 3.1
2017-Sep-18 23:59N 33°44' W 118°13'1 1.9
2017-Sep-18 23:30N 33°45' W 118°13'0 0.0
2017-Sep-18 23:00N 33°45' W 118°13'0 0.0
2017-Sep-18 22:29N 33°45' W 118°13'0 0.0
2017-Sep-18 21:59N 33°45' W 118°13'0 0.0
2017-Sep-18 21:30N 33°45' W 118°13'0 0.0
2017-Sep-18 20:58N 33°45' W 118°13'2 3.7
2017-Sep-18 20:31N 33°44' W 118°12'2 4.2
2017-Sep-18 19:58N 33°45' W 118°09'3 4.5
2017-Sep-18 19:21N 33°44' W 118°12'1 2.1
2017-Sep-18 19:00N 33°45' W 118°13'2 3.1
2017-Sep-18 18:30N 33°44' W 118°13'2 2.8
2017-Sep-18 17:51N 33°44' W 118°16'0 0.0
2017-Sep-18 17:30N 33°44' W 118°16'0 0.0
2017-Sep-18 16:53N 33°44' W 118°16'0 0.0
2017-Sep-18 16:28N 33°44' W 118°16'0 0.0
2017-Sep-18 15:59N 33°44' W 118°16'2 3.0
2017-Sep-18 15:25N 33°46' W 118°16'1 2.8
2017-Sep-18 14:57N 33°44' W 118°17'1 1.8
2017-Sep-18 14:28N 33°44' W 118°16'2 1.4
2017-Sep-18 13:01N 33°46' W 118°15'0 1.0
2017-Sep-18 12:49N 33°46' W 118°15'1 3.0
2017-Sep-18 12:27N 33°45' W 118°16'2 4.6
2017-Sep-18 12:01N 33°43' W 118°16'1 1.0
2017-Sep-18 11:07N 33°44' W 118°16'0 2.8
2017-Sep-18 11:00N 33°44' W 118°16'5 2.1
2017-Sep-18 08:54N 33°44' W 118°10'0 0.1
2017-Sep-18 08:26N 33°44' W 118°10'3 3.8
2017-Sep-18 07:41N 33°43' W 118°14'1 7.2
2017-Sep-18 07:30N 33°43' W 118°15'1 0.6
2017-Sep-18 05:32N 33°44' W 118°16'0 7.7
2017-Sep-18 05:30N 33°44' W 118°16'2 2.2
2017-Sep-18 04:30N 33°46' W 118°16'3 5.4
2017-Sep-18 04:00N 33°43' W 118°16'0 0.9
2017-Sep-18 03:27N 33°44' W 118°16'3 5.6
2017-Sep-18 02:58N 33°44' W 118°12'1 1.2
2017-Sep-18 02:27N 33°45' W 118°13'1 1.6
2017-Sep-18 01:55N 33°44' W 118°12'0 0.3
2017-Sep-18 01:30N 33°44' W 118°12'3 4.3
2017-Sep-18 00:48N 33°41' W 118°11'3 6.4
2017-Sep-18 00:18N 33°42' W 118°14'2 5.9
2017-Sep-18 00:00N 33°44' W 118°16'0 0.5
2017-Sep-17 23:29N 33°44' W 118°16'0 1.0
2017-Sep-17 23:00N 33°44' W 118°15'0 0.1
2017-Sep-17 22:29N 33°44' W 118°15'0 0.5
2017-Sep-17 22:00N 33°44' W 118°16'0 0.0
2017-Sep-17 21:27N 33°44' W 118°16'0 0.0
2017-Sep-17 21:00N 33°44' W 118°16'0 0.0
2017-Sep-17 20:26N 33°44' W 118°16'0 0.0
2017-Sep-17 19:59N 33°44' W 118°16'0 0.0
2017-Sep-17 18:18N 33°44' W 118°16'0 0.0
2017-Sep-17 17:40N 33°44' W 118°16'1 5.9
2017-Sep-17 17:28N 33°43' W 118°15'3 1.8
2017-Sep-17 15:58N 33°45' W 118°13'0 0.0
2017-Sep-17 15:19N 33°45' W 118°13'1 0.4
2017-Sep-17 12:31N 33°46' W 118°13'0 1.5
2017-Sep-17 12:30N 33°46' W 118°13'3 5.1
2017-Sep-17 11:54N 33°44' W 118°11'1 1.6
2017-Sep-17 11:26N 33°44' W 118°12'3 2.6
2017-Sep-17 10:18N 33°44' W 118°16'1 1.3
2017-Sep-17 09:47N 33°43' W 118°16'3 7.5
2017-Sep-17 09:21N 33°44' W 118°12'2 3.3
2017-Sep-17 08:49N 33°44' W 118°10'0 0.0
2017-Sep-17 08:20N 33°44' W 118°10'0 0.0
2017-Sep-17 08:00N 33°44' W 118°10'4 7.8
2017-Sep-17 07:28N 33°43' W 118°15'1 1.1
2017-Sep-17 06:27N 33°44' W 118°16'3 5.3
2017-Sep-17 05:52N 33°44' W 118°12'2 4.1
2017-Sep-17 05:19N 33°46' W 118°13'0 0.9
2017-Sep-17 04:49N 33°46' W 118°13'0 0.1
2017-Sep-17 04:27N 33°46' W 118°13'0 0.0
2017-Sep-17 03:56N 33°46' W 118°13'1 3.2
2017-Sep-17 03:30N 33°45' W 118°13'3 5.0
2017-Sep-17 02:59N 33°44' W 118°16'0 0.3
2017-Sep-17 02:30N 33°44' W 118°16'0 0.0
2017-Sep-17 01:55N 33°44' W 118°16'0 0.0
2017-Sep-17 01:27N 33°44' W 118°16'1 2.2
2017-Sep-17 00:51N 33°45' W 118°16'0 0.5
2017-Sep-17 00:22N 33°45' W 118°17'0 0.1
2017-Sep-16 23:45N 33°45' W 118°16'1 3.8
2017-Sep-16 23:28N 33°44' W 118°17'1 1.3
2017-Sep-16 22:53N 33°44' W 118°16'0 0.0
2017-Sep-16 22:27N 33°44' W 118°16'0 0.0
2017-Sep-16 21:57N 33°44' W 118°16'0 0.0
2017-Sep-16 21:24N 33°44' W 118°16'0 0.1
2017-Sep-16 21:00N 33°44' W 118°16'0 0.0
2017-Sep-16 20:28N 33°44' W 118°16'0 0.0
2017-Sep-16 20:00N 33°44' W 118°16'0 0.0
2017-Sep-16 19:25N 33°44' W 118°16'0 0.0
2017-Sep-16 18:51N 33°44' W 118°16'2 3.8
2017-Sep-16 18:27N 33°43' W 118°14'3 3.9
2017-Sep-16 17:33N 33°44' W 118°10'0 0.9
2017-Sep-16 17:16N 33°44' W 118°10'3 0.8
2017-Sep-16 13:16N 33°46' W 118°13'0 0.3
2017-Sep-16 12:52N 33°46' W 118°13'0 0.9
2017-Sep-16 12:26N 33°46' W 118°13'0 0.1
2017-Sep-16 11:04N 33°46' W 118°13'2 1.9
2017-Sep-16 10:07N 33°45' W 118°12'0 0.1
2017-Sep-16 09:10N 33°45' W 118°12'0 0.2
2017-Sep-16 08:50N 33°45' W 118°12'0 0.0
2017-Sep-16 08:15N 33°45' W 118°12'2 7.2
2017-Sep-16 07:54N 33°43' W 118°14'1 2.8
2017-Sep-16 07:23N 33°44' W 118°16'0 0.0
2017-Sep-16 06:59N 33°44' W 118°16'0 0.0
2017-Sep-16 06:20N 33°44' W 118°16'2 3.3
2017-Sep-16 05:53N 33°43' W 118°14'3 7.3
2017-Sep-16 05:26N 33°46' W 118°13'0 0.1
2017-Sep-16 04:55N 33°46' W 118°13'0 0.7
2017-Sep-16 04:29N 33°46' W 118°13'1 3.0
2017-Sep-16 04:00N 33°45' W 118°13'2 3.5
2017-Sep-16 03:30N 33°43' W 118°11'0 0.1
2017-Sep-16 03:00N 33°44' W 118°11'0 0.5
2017-Sep-16 02:31N 33°44' W 118°12'1 1.2
2017-Sep-16 02:00N 33°44' W 118°12'4 6.3
2017-Sep-16 01:24N 33°45' W 118°17'1 2.7
2017-Sep-16 00:58N 33°45' W 118°16'0 0.6
2017-Sep-16 00:27N 33°46' W 118°16'0 0.0
2017-Sep-15 23:59N 33°46' W 118°16'2 4.2
2017-Sep-15 23:30N 33°46' W 118°13'0 0.3
2017-Sep-15 22:59N 33°45' W 118°13'2 4.9
2017-Sep-15 22:31N 33°44' W 118°11'1 2.5
2017-Sep-15 22:00N 33°45' W 118°12'3 6.2
2017-Sep-15 21:30N 33°43' W 118°16'0 0.9
2017-Sep-15 20:59N 33°44' W 118°15'0 0.0
2017-Sep-15 20:30N 33°44' W 118°15'0 0.5
2017-Sep-15 20:00N 33°44' W 118°16'0 0.0
2017-Sep-15 19:29N 33°44' W 118°16'0 0.0
2017-Sep-15 19:00N 33°44' W 118°16'0 0.0
2017-Sep-15 18:30N 33°44' W 118°16'0 0.0
2017-Sep-15 18:00N 33°44' W 118°16'2 5.1
2017-Sep-15 17:30N 33°43' W 118°13'2 3.3
2017-Sep-15 16:58N 33°45' W 118°13'1 2.1
2017-Sep-15 16:28N 33°46' W 118°13'1 0.9
2017-Sep-15 15:53N 33°46' W 118°13'0 1.1
2017-Sep-15 15:30N 33°46' W 118°13'1 1.3
2017-Sep-15 14:28N 33°45' W 118°13'0 0.0
2017-Sep-15 14:00N 33°45' W 118°13'0 0.0
2017-Sep-15 13:29N 33°45' W 118°13'0 0.0
2017-Sep-15 12:56N 33°45' W 118°13'0 0.4
2017-Sep-15 12:29N 33°45' W 118°13'1 1.8
2017-Sep-15 11:59N 33°45' W 118°12'0 0.2
2017-Sep-15 11:29N 33°45' W 118°12'0 0.0
2017-Sep-15 10:57N 33°45' W 118°12'2 4.5
2017-Sep-15 10:28N 33°43' W 118°14'2 3.4
2017-Sep-15 09:59N 33°44' W 118°16'0 0.0
2017-Sep-15 09:29N 33°44' W 118°16'0 0.0
2017-Sep-15 09:00N 33°44' W 118°16'0 0.0
2017-Sep-15 08:26N 33°44' W 118°16'0 0.0
2017-Sep-15 08:00N 33°44' W 118°16'0 0.0
2017-Sep-15 07:27N 33°44' W 118°16'0 0.0
2017-Sep-15 07:00N 33°44' W 118°16'0 0.0
2017-Sep-15 06:28N 33°44' W 118°16'0 0.0
2017-Sep-15 06:00N 33°44' W 118°16'0 0.0
2017-Sep-15 05:29N 33°44' W 118°16'0 0.0
2017-Sep-15 04:59N 33°44' W 118°16'0 0.0
2017-Sep-15 04:26N 33°44' W 118°16'0 0.0
2017-Sep-15 03:59N 33°44' W 118°16'0 0.0
2017-Sep-15 03:30N 33°44' W 118°16'1 2.8
2017-Sep-15 03:00N 33°45' W 118°16'1 1.2
2017-Sep-15 02:29N 33°46' W 118°16'1 2.4
2017-Sep-15 01:59N 33°45' W 118°16'1 2.1
2017-Sep-15 01:26N 33°44' W 118°16'1 2.5
2017-Sep-15 00:59N 33°43' W 118°15'3 6.2
2017-Sep-15 00:30N 33°45' W 118°12'0 0.8
2017-Sep-15 00:00N 33°45' W 118°13'0 0.9
2017-Sep-14 23:30N 33°45' W 118°12'0 0.2
2017-Sep-14 23:01N 33°45' W 118°12'2 2.9
2017-Sep-14 22:29N 33°44' W 118°11'1 2.1
2017-Sep-14 22:00N 33°44' W 118°10'2 4.3
2017-Sep-14 21:30N 33°43' W 118°13'3 4.8
2017-Sep-14 20:57N 33°44' W 118°16'0 0.0
2017-Sep-14 20:30N 33°44' W 118°16'0 0.0
2017-Sep-14 20:00N 33°44' W 118°16'0 0.0
2017-Sep-14 19:30N 33°44' W 118°16'0 0.0
2017-Sep-14 19:00N 33°44' W 118°16'0 0.0
2017-Sep-14 18:29N 33°44' W 118°16'0 0.0
2017-Sep-14 18:00N 33°44' W 118°16'1 2.5
2017-Sep-14 17:31N 33°43' W 118°15'4 7.4
2017-Sep-14 17:00N 33°44' W 118°10'1 1.8
2017-Sep-14 16:30N 33°44' W 118°11'2 4.1
2017-Sep-14 16:00N 33°45' W 118°13'0 0.8
2017-Sep-14 15:29N 33°45' W 118°13'0 0.2
2017-Sep-14 14:58N 33°45' W 118°13'  
Track history (hours):
 
Tides and Currents Weather Stations Pressure Air Temp Water Temp Dewpoint Dewpoint Depression Visibility Wind Speed Wind Dir Waves Ship Positions

Robert Franco

Owner: Harley Marine Services, Inc, Seattle, WA. More information available from US FCC via Universal Licensing System and Coast Guard Vessel Documentation Center.

Last reported at 2017-Sep-24 14:00 UTC. Time now 2017-Sep-24 14:12 UTC.
Position N 33°45' W 118°11'.

Length 30 m; draft 5.7 m.

Type: Towing. MMSI: 367569830.

Date/timePositionNaut miles runAvg speedWind from/ knotsBaromVisibWave heightAir tempDewpointWater temp
2017-Sep-24 14:00N 33°45' W 118°11'1 2.1
2017-Sep-24 13:30N 33°45' W 118°12'3 5.9
2017-Sep-24 13:00N 33°43' W 118°15'1 2.1
2017-Sep-24 12:30N 33°44' W 118°16'0 0.2
2017-Sep-24 12:00N 33°44' W 118°16'0 0.0
2017-Sep-24 11:31N 33°44' W 118°16'0 0.1
2017-Sep-24 11:00N 33°44' W 118°16'0 0.0
2017-Sep-24 10:30N 33°44' W 118°16'0 0.0
2017-Sep-24 10:00N 33°44' W 118°16'0 0.0
2017-Sep-24 09:30N 33°44' W 118°16'0 0.0
2017-Sep-24 09:00N 33°44' W 118°16'0 0.0
2017-Sep-24 08:30N 33°44' W 118°16'0 0.0
2017-Sep-24 08:00N 33°44' W 118°16'0 0.0
2017-Sep-24 07:30N 33°44' W 118°16'0 0.0
2017-Sep-24 06:49N 33°44' W 118°16'0 0.0
2017-Sep-24 06:30N 33°44' W 118°16'0 0.0
2017-Sep-24 06:00N 33°44' W 118°16'0 0.0
2017-Sep-24 05:17N 33°44' W 118°16'0 0.0
2017-Sep-24 05:00N 33°44' W 118°16'0 0.0
2017-Sep-24 04:30N 33°44' W 118°16'0 0.0
2017-Sep-24 04:00N 33°44' W 118°16'0 0.0
2017-Sep-24 03:30N 33°44' W 118°16'0 0.0
2017-Sep-24 03:00N 33°44' W 118°16'0 0.0
2017-Sep-24 02:30N 33°44' W 118°16'0 0.0
2017-Sep-24 02:00N 33°44' W 118°16'1 1.8
2017-Sep-24 01:30N 33°43' W 118°16'2 4.5
2017-Sep-24 01:00N 33°45' W 118°16'1 1.6
2017-Sep-24 00:30N 33°46' W 118°15'0 0.2
2017-Sep-24 00:00N 33°46' W 118°16'0 0.0
2017-Sep-23 23:30N 33°46' W 118°16'0 0.0
2017-Sep-23 23:00N 33°46' W 118°16'1 1.9
2017-Sep-23 22:28N 33°46' W 118°14'1 2.3
2017-Sep-23 21:59N 33°46' W 118°13'2 4.6
2017-Sep-23 21:29N 33°44' W 118°13'2 3.6
2017-Sep-23 21:00N 33°43' W 118°14'2 1.0
2017-Sep-23 19:31N 33°44' W 118°16'3 0.1
2017-Sep-22 01:59N 33°44' W 118°12'3 5.0
2017-Sep-22 01:27N 33°44' W 118°16'0 0.6
2017-Sep-22 01:00N 33°44' W 118°16'0 0.0
2017-Sep-22 00:28N 33°44' W 118°16'0 0.0
2017-Sep-22 00:00N 33°44' W 118°16'0 0.0
2017-Sep-21 23:30N 33°44' W 118°16'1 2.5
2017-Sep-21 22:58N 33°45' W 118°16'1 1.1
2017-Sep-21 22:27N 33°45' W 118°17'2 5.2
2017-Sep-21 21:59N 33°43' W 118°15'0 0.4
2017-Sep-21 21:28N 33°43' W 118°15'1 3.1
2017-Sep-21 21:00N 33°44' W 118°16'0 0.0
2017-Sep-21 20:28N 33°44' W 118°16'0 0.0
2017-Sep-21 19:59N 33°44' W 118°16'0 0.0
2017-Sep-21 19:30N 33°44' W 118°16'0 0.0
2017-Sep-21 18:59N 33°44' W 118°16'0 0.7
2017-Sep-21 18:30N 33°44' W 118°16'3 5.8
2017-Sep-21 18:00N 33°45' W 118°13'0 0.0
2017-Sep-21 17:30N 33°45' W 118°13'0 0.0
2017-Sep-21 17:00N 33°45' W 118°13'1 1.2
2017-Sep-21 16:31N 33°45' W 118°13'0 0.8
2017-Sep-21 16:00N 33°45' W 118°13'6 4.4
2017-Sep-21 14:42N 33°40' W 118°10'1 5.0
2017-Sep-21 14:25N 33°40' W 118°09'4 6.3
2017-Sep-21 13:47N 33°43' W 118°11'3 8.8
2017-Sep-21 13:30N 33°45' W 118°13'0 0.3
2017-Sep-21 12:52N 33°45' W 118°13'2 5.6
2017-Sep-21 12:29N 33°44' W 118°11'1 1.1
2017-Sep-21 11:58N 33°44' W 118°12'3 5.3
2017-Sep-21 11:27N 33°44' W 118°15'0 0.5
2017-Sep-21 10:48N 33°44' W 118°15'2 5.3
2017-Sep-21 10:27N 33°44' W 118°13'2 4.5
2017-Sep-21 09:57N 33°46' W 118°13'1 1.2
2017-Sep-21 09:27N 33°46' W 118°14'4 4.5
2017-Sep-21 08:39N 33°43' W 118°15'1 5.4
2017-Sep-21 08:27N 33°44' W 118°16'0 0.1
2017-Sep-21 07:56N 33°44' W 118°16'0 0.0
2017-Sep-21 07:14N 33°44' W 118°16'0 0.0
2017-Sep-21 06:58N 33°44' W 118°16'0 0.0
2017-Sep-21 06:29N 33°44' W 118°16'0 0.0
2017-Sep-21 06:00N 33°44' W 118°16'0 0.0
2017-Sep-21 05:21N 33°44' W 118°16'0 0.5
2017-Sep-21 05:00N 33°44' W 118°15'0 0.3
2017-Sep-21 04:29N 33°44' W 118°16'0 0.0
2017-Sep-21 03:59N 33°44' W 118°16'0 0.0
2017-Sep-21 03:29N 33°44' W 118°16'0 0.0
2017-Sep-21 02:58N 33°44' W 118°16'0 0.0
2017-Sep-21 02:29N 33°44' W 118°16'0 0.0
2017-Sep-21 01:58N 33°44' W 118°16'0 0.0
2017-Sep-21 01:30N 33°44' W 118°16'0 0.0
2017-Sep-21 00:58N 33°44' W 118°16'0 0.0
2017-Sep-21 00:29N 33°44' W 118°16'0 0.0
2017-Sep-20 23:59N 33°44' W 118°16'0 0.0
2017-Sep-20 23:30N 33°44' W 118°16'0 0.0
2017-Sep-20 22:56N 33°44' W 118°16'0 0.0
2017-Sep-20 22:26N 33°44' W 118°16'0 0.0
2017-Sep-20 22:00N 33°44' W 118°16'0 0.0
2017-Sep-20 21:30N 33°44' W 118°16'0 0.0
2017-Sep-20 21:00N 33°44' W 118°16'0 0.0
2017-Sep-20 20:29N 33°44' W 118°16'0 0.0
2017-Sep-20 20:00N 33°44' W 118°16'0 0.0
2017-Sep-20 19:29N 33°44' W 118°16'0 0.0
2017-Sep-20 19:00N 33°44' W 118°16'0 0.0
2017-Sep-20 18:30N 33°44' W 118°16'0 0.0
2017-Sep-20 18:00N 33°44' W 118°16'0 0.0
2017-Sep-20 17:30N 33°44' W 118°16'0 0.0
2017-Sep-20 17:00N 33°44' W 118°16'0 0.0
2017-Sep-20 16:30N 33°44' W 118°16'0 0.0
2017-Sep-20 15:56N 33°44' W 118°16'0 0.0
2017-Sep-20 15:30N 33°44' W 118°16'0 0.2
2017-Sep-20 13:40N 33°43' W 118°16'1 8.4
2017-Sep-20 13:30N 33°43' W 118°14'2 4.0
2017-Sep-20 12:54N 33°45' W 118°13'0 0.7
2017-Sep-20 12:19N 33°46' W 118°13'0 0.0
2017-Sep-20 12:00N 33°46' W 118°13'1 2.3
2017-Sep-20 11:29N 33°44' W 118°13'1 1.2
2017-Sep-20 10:49N 33°45' W 118°13'0 1.0
2017-Sep-20 10:29N 33°45' W 118°13'0 0.1
2017-Sep-20 10:00N 33°45' W 118°13'0 0.3
2017-Sep-20 09:29N 33°45' W 118°13'0 0.4
2017-Sep-20 08:51N 33°45' W 118°13'2 6.1
2017-Sep-20 08:27N 33°43' W 118°14'1 3.1
2017-Sep-20 07:59N 33°44' W 118°16'0 0.0
2017-Sep-20 07:25N 33°44' W 118°16'0 0.0
2017-Sep-20 06:59N 33°44' W 118°16'0 0.0
2017-Sep-20 06:20N 33°44' W 118°16'0 0.0
2017-Sep-20 05:58N 33°44' W 118°16'0 0.0
2017-Sep-20 05:24N 33°44' W 118°16'0 0.0
2017-Sep-20 04:59N 33°44' W 118°16'0 0.0
2017-Sep-20 04:28N 33°44' W 118°16'0 0.0
2017-Sep-20 03:59N 33°44' W 118°16'0 0.0
2017-Sep-20 02:58N 33°44' W 118°16'0 0.0
2017-Sep-20 02:28N 33°44' W 118°16'0 0.0
2017-Sep-20 02:00N 33°44' W 118°16'0 0.0
2017-Sep-20 01:20N 33°44' W 118°16'0 0.0
2017-Sep-20 00:58N 33°44' W 118°16'0 0.0
2017-Sep-20 00:26N 33°44' W 118°16'0 0.0
2017-Sep-19 23:57N 33°44' W 118°16'1 1.4
2017-Sep-19 23:29N 33°44' W 118°16'2 3.5
2017-Sep-19 22:58N 33°46' W 118°16'3 5.9
2017-Sep-19 22:29N 33°43' W 118°16'3 7.0
2017-Sep-19 22:00N 33°45' W 118°12'1 2.2
2017-Sep-19 21:31N 33°45' W 118°13'0 0.8
2017-Sep-19 20:56N 33°45' W 118°13'1 2.2
2017-Sep-19 20:29N 33°44' W 118°13'2 2.1
2017-Sep-19 19:30N 33°44' W 118°16'0 0.0
2017-Sep-19 18:42N 33°44' W 118°16'0 0.0
2017-Sep-19 18:25N 33°44' W 118°16'0 0.0
2017-Sep-19 17:48N 33°44' W 118°16'0 0.0
2017-Sep-19 17:30N 33°44' W 118°16'0 0.3
2017-Sep-19 15:49N 33°43' W 118°16'3 6.1
2017-Sep-19 15:20N 33°44' W 118°12'0 0.6
2017-Sep-19 14:59N 33°45' W 118°12'3 0.7
2017-Sep-19 10:18N 33°45' W 118°16'0 1.3
2017-Sep-19 09:58N 33°45' W 118°16'0 0.1
2017-Sep-19 09:26N 33°45' W 118°16'2 2.2
2017-Sep-19 08:43N 33°44' W 118°16'0 0.0
2017-Sep-19 08:30N 33°44' W 118°16'0 0.0
2017-Sep-19 07:55N 33°44' W 118°16'0 0.0
2017-Sep-19 07:30N 33°44' W 118°16'0 0.0
2017-Sep-19 06:53N 33°44' W 118°16'0 0.0
2017-Sep-19 06:26N 33°44' W 118°16'0 0.0
2017-Sep-19 04:26N 33°44' W 118°16'0 0.0
2017-Sep-19 03:59N 33°44' W 118°16'0 0.0
2017-Sep-19 03:30N 33°44' W 118°16'0 0.0
2017-Sep-19 02:40N 33°44' W 118°16'0 0.0
2017-Sep-19 02:27N 33°44' W 118°16'0 0.0
2017-Sep-19 01:47N 33°44' W 118°16'0 0.0
2017-Sep-19 01:19N 33°44' W 118°16'0 0.0
2017-Sep-19 00:53N 33°44' W 118°16'2 3.6
2017-Sep-19 00:27N 33°43' W 118°14'1 3.1
2017-Sep-18 23:59N 33°44' W 118°13'1 1.9
2017-Sep-18 23:30N 33°45' W 118°13'0 0.0
2017-Sep-18 23:00N 33°45' W 118°13'0 0.0
2017-Sep-18 22:29N 33°45' W 118°13'0 0.0
2017-Sep-18 21:59N 33°45' W 118°13'0 0.0
2017-Sep-18 21:30N 33°45' W 118°13'0 0.0
2017-Sep-18 20:58N 33°45' W 118°13'2 3.7
2017-Sep-18 20:31N 33°44' W 118°12'2 4.2
2017-Sep-18 19:58N 33°45' W 118°09'3 4.5
2017-Sep-18 19:21N 33°44' W 118°12'1 2.1
2017-Sep-18 19:00N 33°45' W 118°13'2 3.1
2017-Sep-18 18:30N 33°44' W 118°13'2 2.8
2017-Sep-18 17:51N 33°44' W 118°16'0 0.0
2017-Sep-18 17:30N 33°44' W 118°16'0 0.0
2017-Sep-18 16:53N 33°44' W 118°16'0 0.0
2017-Sep-18 16:28N 33°44' W 118°16'0 0.0
2017-Sep-18 15:59N 33°44' W 118°16'2 3.0
2017-Sep-18 15:25N 33°46' W 118°16'1 2.8
2017-Sep-18 14:57N 33°44' W 118°17'1 1.8
2017-Sep-18 14:28N 33°44' W 118°16'2 1.4
2017-Sep-18 13:01N 33°46' W 118°15'0 1.0
2017-Sep-18 12:49N 33°46' W 118°15'1 3.0
2017-Sep-18 12:27N 33°45' W 118°16'2 4.6
2017-Sep-18 12:01N 33°43' W 118°16'1 1.0
2017-Sep-18 11:07N 33°44' W 118°16'0 2.8
2017-Sep-18 11:00N 33°44' W 118°16'5 2.1
2017-Sep-18 08:54N 33°44' W 118°10'0 0.1
2017-Sep-18 08:26N 33°44' W 118°10'3 3.8
2017-Sep-18 07:41N 33°43' W 118°14'1 7.2
2017-Sep-18 07:30N 33°43' W 118°15'1 0.6
2017-Sep-18 05:32N 33°44' W 118°16'0 7.7
2017-Sep-18 05:30N 33°44' W 118°16'2 2.2
2017-Sep-18 04:30N 33°46' W 118°16'3 5.4
2017-Sep-18 04:00N 33°43' W 118°16'0 0.9
2017-Sep-18 03:27N 33°44' W 118°16'3 5.6
2017-Sep-18 02:58N 33°44' W 118°12'1 1.2
2017-Sep-18 02:27N 33°45' W 118°13'1 1.6
2017-Sep-18 01:55N 33°44' W 118°12'0 0.3
2017-Sep-18 01:30N 33°44' W 118°12'3 4.3
2017-Sep-18 00:48N 33°41' W 118°11'3 6.4
2017-Sep-18 00:18N 33°42' W 118°14'2 5.9
2017-Sep-18 00:00N 33°44' W 118°16'0 0.5
2017-Sep-17 23:29N 33°44' W 118°16'0 1.0
2017-Sep-17 23:00N 33°44' W 118°15'0 0.1
2017-Sep-17 22:29N 33°44' W 118°15'0 0.5
2017-Sep-17 22:00N 33°44' W 118°16'0 0.0
2017-Sep-17 21:27N 33°44' W 118°16'0 0.0
2017-Sep-17 21:00N 33°44' W 118°16'0 0.0
2017-Sep-17 20:26N 33°44' W 118°16'0 0.0
2017-Sep-17 19:59N 33°44' W 118°16'0 0.0
2017-Sep-17 18:18N 33°44' W 118°16'0 0.0
2017-Sep-17 17:40N 33°44' W 118°16'1 5.9
2017-Sep-17 17:28N 33°43' W 118°15'3 1.8
2017-Sep-17 15:58N 33°45' W 118°13'0 0.0
2017-Sep-17 15:19N 33°45' W 118°13'1 0.4
2017-Sep-17 12:31N 33°46' W 118°13'0 1.5
2017-Sep-17 12:30N 33°46' W 118°13'3 5.1
2017-Sep-17 11:54N 33°44' W 118°11'1 1.6
2017-Sep-17 11:26N 33°44' W 118°12'3 2.6
2017-Sep-17 10:18N 33°44' W 118°16'1 1.3
2017-Sep-17 09:47N 33°43' W 118°16'3 7.5
2017-Sep-17 09:21N 33°44' W 118°12'2 3.3
2017-Sep-17 08:49N 33°44' W 118°10'0 0.0
2017-Sep-17 08:20N 33°44' W 118°10'0 0.0
2017-Sep-17 08:00N 33°44' W 118°10'4 7.8
2017-Sep-17 07:28N 33°43' W 118°15'1 1.1
2017-Sep-17 06:27N 33°44' W 118°16'3 5.3
2017-Sep-17 05:52N 33°44' W 118°12'2 4.1
2017-Sep-17 05:19N 33°46' W 118°13'0 0.9
2017-Sep-17 04:49N 33°46' W 118°13'0 0.1
2017-Sep-17 04:27N 33°46' W 118°13'0 0.0
2017-Sep-17 03:56N 33°46' W 118°13'1 3.2
2017-Sep-17 03:30N 33°45' W 118°13'3 5.0
2017-Sep-17 02:59N 33°44' W 118°16'0 0.3
2017-Sep-17 02:30N 33°44' W 118°16'0 0.0
2017-Sep-17 01:55N 33°44' W 118°16'0 0.0
2017-Sep-17 01:27N 33°44' W 118°16'1 2.2
2017-Sep-17 00:51N 33°45' W 118°16'0 0.5
2017-Sep-17 00:22N 33°45' W 118°17'0 0.1
2017-Sep-16 23:45N 33°45' W 118°16'1 3.8
2017-Sep-16 23:28N 33°44' W 118°17'1 1.3
2017-Sep-16 22:53N 33°44' W 118°16'0 0.0
2017-Sep-16 22:27N 33°44' W 118°16'0 0.0
2017-Sep-16 21:57N 33°44' W 118°16'0 0.0
2017-Sep-16 21:24N 33°44' W 118°16'0 0.1
2017-Sep-16 21:00N 33°44' W 118°16'0 0.0
2017-Sep-16 20:28N 33°44' W 118°16'0 0.0
2017-Sep-16 20:00N 33°44' W 118°16'0 0.0
2017-Sep-16 19:25N 33°44' W 118°16'0 0.0
2017-Sep-16 18:51N 33°44' W 118°16'2 3.8
2017-Sep-16 18:27N 33°43' W 118°14'3 3.9
2017-Sep-16 17:33N 33°44' W 118°10'0 0.9
2017-Sep-16 17:16N 33°44' W 118°10'3 0.8
2017-Sep-16 13:16N 33°46' W 118°13'0 0.3
2017-Sep-16 12:52N 33°46' W 118°13'0 0.9
2017-Sep-16 12:26N 33°46' W 118°13'0 0.1
2017-Sep-16 11:04N 33°46' W 118°13'2 1.9
2017-Sep-16 10:07N 33°45' W 118°12'0 0.1
2017-Sep-16 09:10N 33°45' W 118°12'0 0.2
2017-Sep-16 08:50N 33°45' W 118°12'0 0.0
2017-Sep-16 08:15N 33°45' W 118°12'2 7.2
2017-Sep-16 07:54N 33°43' W 118°14'1 2.8
2017-Sep-16 07:23N 33°44' W 118°16'0 0.0
2017-Sep-16 06:59N 33°44' W 118°16'0 0.0
2017-Sep-16 06:20N 33°44' W 118°16'2 3.3
2017-Sep-16 05:53N 33°43' W 118°14'3 7.3
2017-Sep-16 05:26N 33°46' W 118°13'0 0.1
2017-Sep-16 04:55N 33°46' W 118°13'0 0.7
2017-Sep-16 04:29N 33°46' W 118°13'1 3.0
2017-Sep-16 04:00N 33°45' W 118°13'2 3.5
2017-Sep-16 03:30N 33°43' W 118°11'0 0.1
2017-Sep-16 03:00N 33°44' W 118°11'0 0.5
2017-Sep-16 02:31N 33°44' W 118°12'1 1.2
2017-Sep-16 02:00N 33°44' W 118°12'4 6.3
2017-Sep-16 01:24N 33°45' W 118°17'1 2.7
2017-Sep-16 00:58N 33°45' W 118°16'0 0.6
2017-Sep-16 00:27N 33°46' W 118°16'0 0.0
2017-Sep-15 23:59N 33°46' W 118°16'2 4.2
2017-Sep-15 23:30N 33°46' W 118°13'0 0.3
2017-Sep-15 22:59N 33°45' W 118°13'2 4.9
2017-Sep-15 22:31N 33°44' W 118°11'1 2.5
2017-Sep-15 22:00N 33°45' W 118°12'3 6.2
2017-Sep-15 21:30N 33°43' W 118°16'0 0.9
2017-Sep-15 20:59N 33°44' W 118°15'0 0.0
2017-Sep-15 20:30N 33°44' W 118°15'0 0.5
2017-Sep-15 20:00N 33°44' W 118°16'0 0.0
2017-Sep-15 19:29N 33°44' W 118°16'0 0.0
2017-Sep-15 19:00N 33°44' W 118°16'0 0.0
2017-Sep-15 18:30N 33°44' W 118°16'0 0.0
2017-Sep-15 18:00N 33°44' W 118°16'2 5.1
2017-Sep-15 17:30N 33°43' W 118°13'2 3.3
2017-Sep-15 16:58N 33°45' W 118°13'1 2.1
2017-Sep-15 16:28N 33°46' W 118°13'1 0.9
2017-Sep-15 15:53N 33°46' W 118°13'0 1.1
2017-Sep-15 15:30N 33°46' W 118°13'1 1.3
2017-Sep-15 14:28N 33°45' W 118°13'0 0.0
2017-Sep-15 14:00N 33°45' W 118°13'0 0.0
2017-Sep-15 13:29N 33°45' W 118°13'0 0.0
2017-Sep-15 12:56N 33°45' W 118°13'0 0.4
2017-Sep-15 12:29N 33°45' W 118°13'1 1.8
2017-Sep-15 11:59N 33°45' W 118°12'0 0.2
2017-Sep-15 11:29N 33°45' W 118°12'0 0.0
2017-Sep-15 10:57N 33°45' W 118°12'2 4.5
2017-Sep-15 10:28N 33°43' W 118°14'2 3.4
2017-Sep-15 09:59N 33°44' W 118°16'0 0.0
2017-Sep-15 09:29N 33°44' W 118°16'0 0.0
2017-Sep-15 09:00N 33°44' W 118°16'0 0.0
2017-Sep-15 08:26N 33°44' W 118°16'0 0.0
2017-Sep-15 08:00N 33°44' W 118°16'0 0.0
2017-Sep-15 07:27N 33°44' W 118°16'0 0.0
2017-Sep-15 07:00N 33°44' W 118°16'0 0.0
2017-Sep-15 06:28N 33°44' W 118°16'0 0.0
2017-Sep-15 06:00N 33°44' W 118°16'0 0.0
2017-Sep-15 05:29N 33°44' W 118°16'0 0.0
2017-Sep-15 04:59N 33°44' W 118°16'0 0.0
2017-Sep-15 04:26N 33°44' W 118°16'0 0.0
2017-Sep-15 03:59N 33°44' W 118°16'0 0.0
2017-Sep-15 03:30N 33°44' W 118°16'1 2.8
2017-Sep-15 03:00N 33°45' W 118°16'1 1.2
2017-Sep-15 02:29N 33°46' W 118°16'1 2.4
2017-Sep-15 01:59N 33°45' W 118°16'1 2.1
2017-Sep-15 01:26N 33°44' W 118°16'1 2.5
2017-Sep-15 00:59N 33°43' W 118°15'3 6.2
2017-Sep-15 00:30N 33°45' W 118°12'0 0.8
2017-Sep-15 00:00N 33°45' W 118°13'0 0.9
2017-Sep-14 23:30N 33°45' W 118°12'0 0.2
2017-Sep-14 23:01N 33°45' W 118°12'2 2.9
2017-Sep-14 22:29N 33°44' W 118°11'1 2.1
2017-Sep-14 22:00N 33°44' W 118°10'2 4.3
2017-Sep-14 21:30N 33°43' W 118°13'3 4.8
2017-Sep-14 20:57N 33°44' W 118°16'0 0.0
2017-Sep-14 20:30N 33°44' W 118°16'0 0.0
2017-Sep-14 20:00N 33°44' W 118°16'0 0.0
2017-Sep-14 19:30N 33°44' W 118°16'0 0.0
2017-Sep-14 19:00N 33°44' W 118°16'0 0.0
2017-Sep-14 18:29N 33°44' W 118°16'0 0.0
2017-Sep-14 18:00N 33°44' W 118°16'1 2.5
2017-Sep-14 17:31N 33°43' W 118°15'4 7.4
2017-Sep-14 17:00N 33°44' W 118°10'1 1.8
2017-Sep-14 16:30N 33°44' W 118°11'2 4.1
2017-Sep-14 16:00N 33°45' W 118°13'0 0.8
2017-Sep-14 15:29N 33°45' W 118°13'0 0.2
2017-Sep-14 14:58N 33°45' W 118°13'  

Dump ship's entire track history